sensor_id;sensor_type;location;lat;lon;timestamp;P1;durP1;ratioP1;P2;durP2;ratioP2
62941;SDS011;49042;47.318;19.874;2023-07-16T00:00:01;6.03;;;3.60;;
62941;SDS011;49042;47.318;19.874;2023-07-16T00:03:06;13.77;;;4.12;;
62941;SDS011;49042;47.318;19.874;2023-07-16T00:06:07;6.20;;;3.50;;
62941;SDS011;49042;47.318;19.874;2023-07-16T00:09:09;6.12;;;3.70;;
62941;SDS011;49042;47.318;19.874;2023-07-16T00:12:11;5.60;;;3.65;;
62941;SDS011;49042;47.318;19.874;2023-07-16T00:15:12;4.72;;;3.40;;
62941;SDS011;49042;47.318;19.874;2023-07-16T00:18:14;6.15;;;3.45;;
62941;SDS011;49042;47.318;19.874;2023-07-16T00:21:16;6.25;;;3.47;;
62941;SDS011;49042;47.318;19.874;2023-07-16T00:24:18;4.43;;;3.50;;
62941;SDS011;49042;47.318;19.874;2023-07-16T00:27:19;6.30;;;3.58;;
62941;SDS011;49042;47.318;19.874;2023-07-16T00:30:21;8.20;;;3.40;;
62941;SDS011;49042;47.318;19.874;2023-07-16T00:33:24;11.65;;;3.87;;
62941;SDS011;49042;47.318;19.874;2023-07-16T00:36:26;5.78;;;3.62;;
62941;SDS011;49042;47.318;19.874;2023-07-16T00:39:28;4.47;;;3.47;;
62941;SDS011;49042;47.318;19.874;2023-07-16T00:42:30;10.93;;;3.45;;
62941;SDS011;49042;47.318;19.874;2023-07-16T00:45:32;9.95;;;3.75;;
62941;SDS011;49042;47.318;19.874;2023-07-16T00:48:34;5.45;;;3.40;;
62941;SDS011;49042;47.318;19.874;2023-07-16T00:51:36;7.30;;;3.62;;
62941;SDS011;49042;47.318;19.874;2023-07-16T00:54:38;6.50;;;3.42;;
62941;SDS011;49042;47.318;19.874;2023-07-16T00:57:40;13.40;;;3.75;;
62941;SDS011;49042;47.318;19.874;2023-07-16T01:00:42;6.28;;;3.92;;
62941;SDS011;49042;47.318;19.874;2023-07-16T01:03:43;7.32;;;3.45;;
62941;SDS011;49042;47.318;19.874;2023-07-16T01:06:50;9.52;;;3.42;;
62941;SDS011;49042;47.318;19.874;2023-07-16T01:09:54;11.02;;;3.65;;
62941;SDS011;49042;47.318;19.874;2023-07-16T01:12:57;3.55;;;3.25;;
62941;SDS011;49042;47.318;19.874;2023-07-16T01:15:59;6.30;;;3.70;;
62941;SDS011;49042;47.318;19.874;2023-07-16T01:19:01;7.97;;;3.53;;
62941;SDS011;49042;47.318;19.874;2023-07-16T01:28:44;12.60;;;5.10;;
62941;SDS011;49042;47.318;19.874;2023-07-16T01:32:09;12.25;;;5.37;;
62941;SDS011;49042;47.318;19.874;2023-07-16T01:35:13;10.25;;;5.25;;
62941;SDS011;49042;47.318;19.874;2023-07-16T01:38:16;14.02;;;6.30;;
62941;SDS011;49042;47.318;19.874;2023-07-16T01:41:20;14.95;;;6.70;;
62941;SDS011;49042;47.318;19.874;2023-07-16T01:44:21;16.05;;;7.05;;
62941;SDS011;49042;47.318;19.874;2023-07-16T01:47:46;16.73;;;6.95;;
62941;SDS011;49042;47.318;19.874;2023-07-16T01:51:02;11.07;;;6.43;;
62941;SDS011;49042;47.318;19.874;2023-07-16T01:54:04;15.38;;;7.50;;
62941;SDS011;49042;47.318;19.874;2023-07-16T01:57:06;33.47;;;10.75;;
62941;SDS011;49042;47.318;19.874;2023-07-16T02:00:08;20.30;;;9.00;;
62941;SDS011;49042;47.318;19.874;2023-07-16T02:03:10;17.42;;;6.65;;
62941;SDS011;49042;47.318;19.874;2023-07-16T02:06:12;14.65;;;6.80;;
62941;SDS011;49042;47.318;19.874;2023-07-16T02:09:16;13.95;;;6.35;;
62941;SDS011;49042;47.318;19.874;2023-07-16T02:12:18;10.05;;;4.68;;
62941;SDS011;49042;47.318;19.874;2023-07-16T02:15:20;10.95;;;4.80;;
62941;SDS011;49042;47.318;19.874;2023-07-16T02:18:21;13.10;;;5.72;;
62941;SDS011;49042;47.318;19.874;2023-07-16T02:21:23;13.60;;;5.57;;
62941;SDS011;49042;47.318;19.874;2023-07-16T02:24:25;14.02;;;6.75;;
62941;SDS011;49042;47.318;19.874;2023-07-16T02:27:27;11.43;;;6.20;;
62941;SDS011;49042;47.318;19.874;2023-07-16T02:30:29;15.77;;;6.15;;
62941;SDS011;49042;47.318;19.874;2023-07-16T02:33:30;10.07;;;4.70;;
62941;SDS011;49042;47.318;19.874;2023-07-16T02:36:32;16.20;;;5.40;;
62941;SDS011;49042;47.318;19.874;2023-07-16T02:39:34;8.38;;;4.90;;
62941;SDS011;49042;47.318;19.874;2023-07-16T02:42:36;11.23;;;4.60;;
62941;SDS011;49042;47.318;19.874;2023-07-16T02:45:37;10.23;;;4.43;;
62941;SDS011;49042;47.318;19.874;2023-07-16T02:48:39;12.57;;;5.20;;
62941;SDS011;49042;47.318;19.874;2023-07-16T02:51:41;11.93;;;5.28;;
62941;SDS011;49042;47.318;19.874;2023-07-16T02:54:43;15.18;;;5.03;;
62941;SDS011;49042;47.318;19.874;2023-07-16T02:57:44;8.07;;;4.55;;
62941;SDS011;49042;47.318;19.874;2023-07-16T03:00:46;8.63;;;4.78;;
62941;SDS011;49042;47.318;19.874;2023-07-16T03:03:48;9.85;;;4.53;;
62941;SDS011;49042;47.318;19.874;2023-07-16T03:06:50;10.63;;;4.55;;
62941;SDS011;49042;47.318;19.874;2023-07-16T03:09:51;6.57;;;4.53;;
62941;SDS011;49042;47.318;19.874;2023-07-16T03:12:53;12.85;;;4.55;;
62941;SDS011;49042;47.318;19.874;2023-07-16T03:15:55;6.35;;;4.53;;
62941;SDS011;49042;47.318;19.874;2023-07-16T03:18:57;8.85;;;5.20;;
62941;SDS011;49042;47.318;19.874;2023-07-16T03:22:01;9.13;;;4.75;;
62941;SDS011;49042;47.318;19.874;2023-07-16T03:25:04;8.73;;;5.10;;
62941;SDS011;49042;47.318;19.874;2023-07-16T03:28:06;7.60;;;4.93;;
62941;SDS011;49042;47.318;19.874;2023-07-16T03:31:08;8.75;;;5.35;;
62941;SDS011;49042;47.318;19.874;2023-07-16T03:34:10;11.12;;;5.65;;
62941;SDS011;49042;47.318;19.874;2023-07-16T03:37:11;9.93;;;5.72;;
62941;SDS011;49042;47.318;19.874;2023-07-16T03:40:14;10.82;;;6.05;;
62941;SDS011;49042;47.318;19.874;2023-07-16T03:43:17;13.95;;;6.47;;
62941;SDS011;49042;47.318;19.874;2023-07-16T03:46:19;16.95;;;7.10;;
62941;SDS011;49042;47.318;19.874;2023-07-16T03:49:20;11.80;;;6.12;;
62941;SDS011;49042;47.318;19.874;2023-07-16T03:52:22;13.32;;;6.12;;
62941;SDS011;49042;47.318;19.874;2023-07-16T03:55:25;17.25;;;6.15;;
62941;SDS011;49042;47.318;19.874;2023-07-16T03:58:27;14.40;;;6.40;;
62941;SDS011;49042;47.318;19.874;2023-07-16T04:01:30;9.40;;;5.25;;
62941;SDS011;49042;47.318;19.874;2023-07-16T04:04:32;6.28;;;5.00;;
62941;SDS011;49042;47.318;19.874;2023-07-16T04:07:34;6.90;;;4.45;;
62941;SDS011;49042;47.318;19.874;2023-07-16T04:10:36;13.65;;;5.07;;
62941;SDS011;49042;47.318;19.874;2023-07-16T04:13:38;8.70;;;4.85;;
62941;SDS011;49042;47.318;19.874;2023-07-16T04:16:39;6.62;;;4.57;;
62941;SDS011;49042;47.318;19.874;2023-07-16T04:19:41;8.15;;;4.75;;
62941;SDS011;49042;47.318;19.874;2023-07-16T04:22:43;7.55;;;5.20;;
62941;SDS011;49042;47.318;19.874;2023-07-16T04:25:44;9.45;;;4.60;;
62941;SDS011;49042;47.318;19.874;2023-07-16T04:28:46;6.65;;;5.07;;
62941;SDS011;49042;47.318;19.874;2023-07-16T04:31:48;13.23;;;4.55;;
62941;SDS011;49042;47.318;19.874;2023-07-16T04:34:49;6.82;;;4.70;;
62941;SDS011;49042;47.318;19.874;2023-07-16T04:37:51;7.00;;;4.50;;
62941;SDS011;49042;47.318;19.874;2023-07-16T04:40:53;5.85;;;4.68;;
62941;SDS011;49042;47.318;19.874;2023-07-16T04:43:55;10.30;;;5.40;;
62941;SDS011;49042;47.318;19.874;2023-07-16T04:46:56;10.52;;;4.78;;
62941;SDS011;49042;47.318;19.874;2023-07-16T04:49:58;13.27;;;4.72;;
62941;SDS011;49042;47.318;19.874;2023-07-16T04:53:00;12.50;;;6.28;;
62941;SDS011;49042;47.318;19.874;2023-07-16T04:56:02;18.10;;;6.53;;
62941;SDS011;49042;47.318;19.874;2023-07-16T04:59:04;13.95;;;6.40;;
62941;SDS011;49042;47.318;19.874;2023-07-16T05:02:06;11.38;;;7.28;;
62941;SDS011;49042;47.318;19.874;2023-07-16T05:05:08;12.05;;;6.87;;
62941;SDS011;49042;47.318;19.874;2023-07-16T05:08:10;13.27;;;7.70;;
62941;SDS011;49042;47.318;19.874;2023-07-16T05:11:12;14.87;;;8.25;;
62941;SDS011;49042;47.318;19.874;2023-07-16T05:14:14;16.70;;;9.38;;
62941;SDS011;49042;47.318;19.874;2023-07-16T05:17:15;10.73;;;6.32;;
62941;SDS011;49042;47.318;19.874;2023-07-16T05:20:17;6.93;;;5.97;;
62941;SDS011;49042;47.318;19.874;2023-07-16T05:23:20;9.98;;;6.00;;
62941;SDS011;49042;47.318;19.874;2023-07-16T05:26:22;11.12;;;6.15;;
62941;SDS011;49042;47.318;19.874;2023-07-16T05:29:24;9.82;;;6.10;;
62941;SDS011;49042;47.318;19.874;2023-07-16T05:32:25;10.77;;;6.87;;
62941;SDS011;49042;47.318;19.874;2023-07-16T05:35:27;12.32;;;7.78;;
62941;SDS011;49042;47.318;19.874;2023-07-16T05:38:29;18.52;;;10.07;;
62941;SDS011;49042;47.318;19.874;2023-07-16T05:41:31;16.15;;;9.98;;
62941;SDS011;49042;47.318;19.874;2023-07-16T05:44:32;20.05;;;8.65;;
62941;SDS011;49042;47.318;19.874;2023-07-16T05:47:34;13.93;;;8.35;;
62941;SDS011;49042;47.318;19.874;2023-07-16T05:50:36;13.52;;;8.20;;
62941;SDS011;49042;47.318;19.874;2023-07-16T05:53:38;13.90;;;8.02;;
62941;SDS011;49042;47.318;19.874;2023-07-16T05:56:39;11.50;;;7.93;;
62941;SDS011;49042;47.318;19.874;2023-07-16T05:59:41;16.48;;;8.15;;
62941;SDS011;49042;47.318;19.874;2023-07-16T06:02:43;14.07;;;9.18;;
62941;SDS011;49042;47.318;19.874;2023-07-16T06:05:44;12.15;;;7.90;;
62941;SDS011;49042;47.318;19.874;2023-07-16T06:08:46;9.90;;;7.47;;
62941;SDS011;49042;47.318;19.874;2023-07-16T06:11:48;33.00;;;7.90;;
62941;SDS011;49042;47.318;19.874;2023-07-16T06:14:50;12.93;;;7.75;;
62941;SDS011;49042;47.318;19.874;2023-07-16T06:17:51;13.20;;;8.30;;
62941;SDS011;49042;47.318;19.874;2023-07-16T06:20:53;13.85;;;7.75;;
62941;SDS011;49042;47.318;19.874;2023-07-16T06:23:56;11.77;;;7.37;;
62941;SDS011;49042;47.318;19.874;2023-07-16T06:26:58;12.90;;;7.45;;
62941;SDS011;49042;47.318;19.874;2023-07-16T06:30:00;14.70;;;7.25;;
62941;SDS011;49042;47.318;19.874;2023-07-16T06:33:02;13.00;;;7.28;;
62941;SDS011;49042;47.318;19.874;2023-07-16T06:36:04;11.65;;;7.65;;
62941;SDS011;49042;47.318;19.874;2023-07-16T06:39:06;13.52;;;7.72;;
62941;SDS011;49042;47.318;19.874;2023-07-16T06:42:07;11.25;;;6.65;;
62941;SDS011;49042;47.318;19.874;2023-07-16T06:45:09;11.05;;;7.15;;
62941;SDS011;49042;47.318;19.874;2023-07-16T06:48:11;14.10;;;6.37;;
62941;SDS011;49042;47.318;19.874;2023-07-16T06:51:13;9.43;;;6.12;;
62941;SDS011;49042;47.318;19.874;2023-07-16T06:54:14;13.00;;;5.47;;
62941;SDS011;49042;47.318;19.874;2023-07-16T06:57:16;9.15;;;5.95;;
62941;SDS011;49042;47.318;19.874;2023-07-16T07:00:18;9.07;;;5.82;;
62941;SDS011;49042;47.318;19.874;2023-07-16T07:03:22;11.80;;;5.60;;
62941;SDS011;49042;47.318;19.874;2023-07-16T07:06:24;8.77;;;6.10;;
62941;SDS011;49042;47.318;19.874;2023-07-16T07:09:26;9.93;;;6.05;;
62941;SDS011;49042;47.318;19.874;2023-07-16T07:12:28;8.98;;;5.40;;
62941;SDS011;49042;47.318;19.874;2023-07-16T07:15:29;8.35;;;5.60;;
62941;SDS011;49042;47.318;19.874;2023-07-16T07:18:31;20.02;;;5.07;;
62941;SDS011;49042;47.318;19.874;2023-07-16T07:21:33;11.77;;;5.28;;
62941;SDS011;49042;47.318;19.874;2023-07-16T07:24:35;6.80;;;4.87;;
62941;SDS011;49042;47.318;19.874;2023-07-16T07:27:36;14.35;;;4.78;;
62941;SDS011;49042;47.318;19.874;2023-07-16T07:30:38;12.70;;;4.95;;
62941;SDS011;49042;47.318;19.874;2023-07-16T07:33:40;6.85;;;4.75;;
62941;SDS011;49042;47.318;19.874;2023-07-16T07:36:42;8.82;;;4.50;;
62941;SDS011;49042;47.318;19.874;2023-07-16T07:39:44;7.85;;;4.32;;
62941;SDS011;49042;47.318;19.874;2023-07-16T07:42:49;10.68;;;4.47;;
62941;SDS011;49042;47.318;19.874;2023-07-16T07:45:50;8.13;;;4.37;;
62941;SDS011;49042;47.318;19.874;2023-07-16T07:48:52;4.80;;;4.12;;
62941;SDS011;49042;47.318;19.874;2023-07-16T07:51:55;5.10;;;4.12;;
62941;SDS011;49042;47.318;19.874;2023-07-16T07:54:57;8.32;;;4.32;;
62941;SDS011;49042;47.318;19.874;2023-07-16T07:57:58;6.37;;;4.57;;
62941;SDS011;49042;47.318;19.874;2023-07-16T08:01:06;14.25;;;4.00;;
62941;SDS011;49042;47.318;19.874;2023-07-16T08:04:08;5.82;;;4.15;;
62941;SDS011;49042;47.318;19.874;2023-07-16T08:07:10;6.97;;;4.35;;
62941;SDS011;49042;47.318;19.874;2023-07-16T08:10:12;8.40;;;4.07;;
62941;SDS011;49042;47.318;19.874;2023-07-16T08:13:14;4.57;;;3.83;;
62941;SDS011;49042;47.318;19.874;2023-07-16T08:16:16;10.23;;;4.05;;
62941;SDS011;49042;47.318;19.874;2023-07-16T08:19:18;9.52;;;3.80;;
62941;SDS011;49042;47.318;19.874;2023-07-16T08:22:20;5.75;;;3.60;;
62941;SDS011;49042;47.318;19.874;2023-07-16T08:25:21;6.35;;;3.40;;
62941;SDS011;49042;47.318;19.874;2023-07-16T08:28:23;10.27;;;3.50;;
62941;SDS011;49042;47.318;19.874;2023-07-16T08:31:25;7.90;;;3.55;;
62941;SDS011;49042;47.318;19.874;2023-07-16T08:34:27;6.75;;;3.45;;
62941;SDS011;49042;47.318;19.874;2023-07-16T08:37:28;9.13;;;3.35;;
62941;SDS011;49042;47.318;19.874;2023-07-16T08:40:30;6.57;;;2.85;;
62941;SDS011;49042;47.318;19.874;2023-07-16T08:43:32;8.40;;;3.10;;
62941;SDS011;49042;47.318;19.874;2023-07-16T08:46:34;6.50;;;3.08;;
62941;SDS011;49042;47.318;19.874;2023-07-16T08:49:36;4.03;;;2.87;;
62941;SDS011;49042;47.318;19.874;2023-07-16T08:52:40;5.18;;;2.70;;
62941;SDS011;49042;47.318;19.874;2023-07-16T08:55:45;7.18;;;2.90;;
62941;SDS011;49042;47.318;19.874;2023-07-16T08:58:50;5.12;;;2.60;;
62941;SDS011;49042;47.318;19.874;2023-07-16T09:01:58;9.80;;;3.30;;
62941;SDS011;49042;47.318;19.874;2023-07-16T09:05:00;5.82;;;3.00;;
62941;SDS011;49042;47.318;19.874;2023-07-16T09:08:02;6.80;;;2.75;;
62941;SDS011;49042;47.318;19.874;2023-07-16T09:11:04;6.45;;;2.92;;
62941;SDS011;49042;47.318;19.874;2023-07-16T09:14:06;4.90;;;2.97;;
62941;SDS011;49042;47.318;19.874;2023-07-16T09:17:07;10.23;;;2.80;;
62941;SDS011;49042;47.318;19.874;2023-07-16T09:20:09;4.50;;;3.33;;
62941;SDS011;49042;47.318;19.874;2023-07-16T09:23:11;7.95;;;3.50;;
62941;SDS011;49042;47.318;19.874;2023-07-16T09:26:13;7.10;;;3.90;;
62941;SDS011;49042;47.318;19.874;2023-07-16T09:29:15;7.82;;;4.35;;
62941;SDS011;49042;47.318;19.874;2023-07-16T09:32:17;8.00;;;4.30;;
62941;SDS011;49042;47.318;19.874;2023-07-16T09:35:19;9.95;;;4.43;;
62941;SDS011;49042;47.318;19.874;2023-07-16T09:38:21;9.63;;;4.32;;
62941;SDS011;49042;47.318;19.874;2023-07-16T09:41:25;7.82;;;3.70;;
62941;SDS011;49042;47.318;19.874;2023-07-16T09:44:28;5.28;;;3.58;;
62941;SDS011;49042;47.318;19.874;2023-07-16T09:47:31;9.40;;;3.90;;
62941;SDS011;49042;47.318;19.874;2023-07-16T09:50:33;6.03;;;4.12;;
62941;SDS011;49042;47.318;19.874;2023-07-16T09:53:36;11.82;;;3.70;;
62941;SDS011;49042;47.318;19.874;2023-07-16T09:56:40;7.85;;;3.78;;
62941;SDS011;49042;47.318;19.874;2023-07-16T09:59:45;9.23;;;4.28;;
62941;SDS011;49042;47.318;19.874;2023-07-16T10:02:49;8.65;;;4.60;;
62941;SDS011;49042;47.318;19.874;2023-07-16T10:05:52;10.88;;;5.35;;
62941;SDS011;49042;47.318;19.874;2023-07-16T10:08:54;11.23;;;5.35;;
62941;SDS011;49042;47.318;19.874;2023-07-16T10:11:55;12.70;;;5.82;;
62941;SDS011;49042;47.318;19.874;2023-07-16T10:15:08;10.55;;;5.70;;
62941;SDS011;49042;47.318;19.874;2023-07-16T10:18:09;11.50;;;6.45;;
62941;SDS011;49042;47.318;19.874;2023-07-16T10:21:11;8.45;;;6.37;;
62941;SDS011;49042;47.318;19.874;2023-07-16T10:24:16;14.73;;;6.85;;
62941;SDS011;49042;47.318;19.874;2023-07-16T10:27:31;8.60;;;6.85;;
62941;SDS011;49042;47.318;19.874;2023-07-16T10:30:34;16.60;;;6.50;;
62941;SDS011;49042;47.318;19.874;2023-07-16T10:33:36;10.73;;;6.80;;
62941;SDS011;49042;47.318;19.874;2023-07-16T10:36:39;11.80;;;7.10;;
62941;SDS011;49042;47.318;19.874;2023-07-16T10:39:48;9.23;;;6.80;;
62941;SDS011;49042;47.318;19.874;2023-07-16T10:42:52;11.93;;;6.70;;
62941;SDS011;49042;47.318;19.874;2023-07-16T10:45:54;10.75;;;6.53;;
62941;SDS011;49042;47.318;19.874;2023-07-16T10:48:56;15.98;;;6.75;;
62941;SDS011;49042;47.318;19.874;2023-07-16T10:52:01;14.52;;;6.93;;
62941;SDS011;49042;47.318;19.874;2023-07-16T10:55:04;7.65;;;6.85;;
62941;SDS011;49042;47.318;19.874;2023-07-16T10:58:06;17.70;;;7.18;;
62941;SDS011;49042;47.318;19.874;2023-07-16T11:01:08;12.88;;;7.20;;
62941;SDS011;49042;47.318;19.874;2023-07-16T11:04:10;11.82;;;7.22;;
62941;SDS011;49042;47.318;19.874;2023-07-16T11:07:13;12.63;;;7.20;;
62941;SDS011;49042;47.318;19.874;2023-07-16T11:10:16;11.82;;;6.72;;
62941;SDS011;49042;47.318;19.874;2023-07-16T11:13:18;12.27;;;6.68;;
62941;SDS011;49042;47.318;19.874;2023-07-16T11:16:19;10.95;;;7.85;;
62941;SDS011;49042;47.318;19.874;2023-07-16T11:19:21;11.02;;;7.62;;
62941;SDS011;49042;47.318;19.874;2023-07-16T11:22:26;13.95;;;7.90;;
62941;SDS011;49042;47.318;19.874;2023-07-16T11:25:29;10.20;;;7.43;;
62941;SDS011;49042;47.318;19.874;2023-07-16T11:28:40;9.60;;;7.60;;
62941;SDS011;49042;47.318;19.874;2023-07-16T11:31:43;12.93;;;7.12;;
62941;SDS011;49042;47.318;19.874;2023-07-16T11:34:51;11.63;;;7.30;;
62941;SDS011;49042;47.318;19.874;2023-07-16T11:37:55;11.35;;;6.80;;
62941;SDS011;49042;47.318;19.874;2023-07-16T11:40:59;8.77;;;7.55;;
62941;SDS011;49042;47.318;19.874;2023-07-16T11:44:01;11.48;;;7.10;;
62941;SDS011;49042;47.318;19.874;2023-07-16T11:47:04;11.23;;;6.87;;
62941;SDS011;49042;47.318;19.874;2023-07-16T11:50:06;11.20;;;7.07;;
62941;SDS011;49042;47.318;19.874;2023-07-16T11:53:08;11.80;;;6.57;;
62941;SDS011;49042;47.318;19.874;2023-07-16T11:56:10;14.13;;;7.00;;
62941;SDS011;49042;47.318;19.874;2023-07-16T11:59:12;12.30;;;7.10;;
62941;SDS011;49042;47.318;19.874;2023-07-16T12:02:14;14.70;;;6.87;;
62941;SDS011;49042;47.318;19.874;2023-07-16T12:05:17;11.45;;;6.82;;
62941;SDS011;49042;47.318;19.874;2023-07-16T12:08:31;8.52;;;6.43;;
62941;SDS011;49042;47.318;19.874;2023-07-16T12:11:32;10.50;;;6.37;;
62941;SDS011;49042;47.318;19.874;2023-07-16T12:14:34;10.90;;;6.70;;
62941;SDS011;49042;47.318;19.874;2023-07-16T12:17:36;10.48;;;6.55;;
62941;SDS011;49042;47.318;19.874;2023-07-16T12:20:37;15.77;;;6.97;;
62941;SDS011;49042;47.318;19.874;2023-07-16T12:23:40;9.48;;;6.50;;
62941;SDS011;49042;47.318;19.874;2023-07-16T12:26:42;16.55;;;6.12;;
62941;SDS011;49042;47.318;19.874;2023-07-16T12:29:44;10.88;;;6.57;;
62941;SDS011;49042;47.318;19.874;2023-07-16T12:32:45;9.07;;;6.57;;
62941;SDS011;49042;47.318;19.874;2023-07-16T12:35:47;12.65;;;7.40;;
62941;SDS011;49042;47.318;19.874;2023-07-16T12:38:49;11.30;;;6.53;;
62941;SDS011;49042;47.318;19.874;2023-07-16T12:41:51;13.27;;;6.62;;
62941;SDS011;49042;47.318;19.874;2023-07-16T12:44:52;10.40;;;6.80;;
62941;SDS011;49042;47.318;19.874;2023-07-16T12:47:54;13.25;;;6.78;;
62941;SDS011;49042;47.318;19.874;2023-07-16T12:50:56;9.65;;;6.70;;
62941;SDS011;49042;47.318;19.874;2023-07-16T12:53:58;8.65;;;6.30;;
62941;SDS011;49042;47.318;19.874;2023-07-16T12:57:02;11.32;;;6.57;;
62941;SDS011;49042;47.318;19.874;2023-07-16T13:00:04;13.32;;;7.05;;
62941;SDS011;49042;47.318;19.874;2023-07-16T13:03:06;12.02;;;7.05;;
62941;SDS011;49042;47.318;19.874;2023-07-16T13:06:13;12.30;;;7.18;;
62941;SDS011;49042;47.318;19.874;2023-07-16T13:09:15;10.38;;;7.57;;
62941;SDS011;49042;47.318;19.874;2023-07-16T13:12:17;12.93;;;8.23;;
62941;SDS011;49042;47.318;19.874;2023-07-16T13:15:19;16.40;;;8.35;;
62941;SDS011;49042;47.318;19.874;2023-07-16T13:18:21;11.80;;;7.47;;
62941;SDS011;49042;47.318;19.874;2023-07-16T13:21:23;14.75;;;7.60;;
62941;SDS011;49042;47.318;19.874;2023-07-16T13:24:25;9.95;;;7.95;;
62941;SDS011;49042;47.318;19.874;2023-07-16T13:27:27;14.77;;;7.93;;
62941;SDS011;49042;47.318;19.874;2023-07-16T13:30:29;11.70;;;8.60;;
62941;SDS011;49042;47.318;19.874;2023-07-16T13:33:33;16.23;;;8.57;;
62941;SDS011;49042;47.318;19.874;2023-07-16T13:36:36;15.85;;;8.95;;
62941;SDS011;49042;47.318;19.874;2023-07-16T13:39:38;17.00;;;7.90;;
62941;SDS011;49042;47.318;19.874;2023-07-16T13:42:39;12.93;;;7.90;;
62941;SDS011;49042;47.318;19.874;2023-07-16T13:45:41;9.18;;;7.00;;
62941;SDS011;49042;47.318;19.874;2023-07-16T13:48:44;10.20;;;7.62;;
62941;SDS011;49042;47.318;19.874;2023-07-16T13:51:59;28.27;;;7.28;;
62941;SDS011;49042;47.318;19.874;2023-07-16T13:55:01;9.98;;;6.85;;
62941;SDS011;49042;47.318;19.874;2023-07-16T13:58:05;14.63;;;7.82;;
62941;SDS011;49042;47.318;19.874;2023-07-16T14:01:07;15.95;;;7.45;;
62941;SDS011;49042;47.318;19.874;2023-07-16T14:04:09;12.75;;;7.35;;
62941;SDS011;49042;47.318;19.874;2023-07-16T14:07:12;12.70;;;8.40;;
62941;SDS011;49042;47.318;19.874;2023-07-16T14:10:14;16.67;;;7.82;;
62941;SDS011;49042;47.318;19.874;2023-07-16T14:13:15;12.07;;;8.13;;
62941;SDS011;49042;47.318;19.874;2023-07-16T14:16:18;10.52;;;8.02;;
62941;SDS011;49042;47.318;19.874;2023-07-16T14:19:21;9.93;;;8.80;;
62941;SDS011;49042;47.318;19.874;2023-07-16T14:22:24;11.30;;;8.90;;
62941;SDS011;49042;47.318;19.874;2023-07-16T14:25:29;11.35;;;8.77;;
62941;SDS011;49042;47.318;19.874;2023-07-16T14:28:31;21.98;;;9.93;;
62941;SDS011;49042;47.318;19.874;2023-07-16T14:31:33;13.38;;;9.25;;
62941;SDS011;49042;47.318;19.874;2023-07-16T14:34:37;13.52;;;9.25;;
62941;SDS011;49042;47.318;19.874;2023-07-16T14:37:39;10.63;;;9.02;;
62941;SDS011;49042;47.318;19.874;2023-07-16T14:40:41;13.43;;;9.43;;
62941;SDS011;49042;47.318;19.874;2023-07-16T14:43:45;12.90;;;9.85;;
62941;SDS011;49042;47.318;19.874;2023-07-16T14:46:49;21.40;;;8.93;;
62941;SDS011;49042;47.318;19.874;2023-07-16T14:49:52;13.88;;;9.80;;
62941;SDS011;49042;47.318;19.874;2023-07-16T14:52:54;17.35;;;9.57;;
62941;SDS011;49042;47.318;19.874;2023-07-16T14:55:56;12.07;;;10.02;;
62941;SDS011;49042;47.318;19.874;2023-07-16T14:58:59;18.90;;;8.32;;
62941;SDS011;49042;47.318;19.874;2023-07-16T15:02:01;11.90;;;8.85;;
62941;SDS011;49042;47.318;19.874;2023-07-16T15:05:03;12.75;;;9.98;;
62941;SDS011;49042;47.318;19.874;2023-07-16T15:08:09;15.70;;;8.68;;
62941;SDS011;49042;47.318;19.874;2023-07-16T15:11:11;19.37;;;15.25;;
62941;SDS011;49042;47.318;19.874;2023-07-16T15:14:13;18.25;;;9.00;;
62941;SDS011;49042;47.318;19.874;2023-07-16T15:17:15;14.10;;;8.48;;
62941;SDS011;49042;47.318;19.874;2023-07-16T15:20:18;13.73;;;8.43;;
62941;SDS011;49042;47.318;19.874;2023-07-16T15:23:21;14.60;;;9.90;;
62941;SDS011;49042;47.318;19.874;2023-07-16T15:26:24;38.63;;;27.83;;
62941;SDS011;49042;47.318;19.874;2023-07-16T15:29:26;21.55;;;13.98;;
62941;SDS011;49042;47.318;19.874;2023-07-16T15:32:28;11.10;;;8.77;;
62941;SDS011;49042;47.318;19.874;2023-07-16T15:35:31;35.53;;;11.60;;
62941;SDS011;49042;47.318;19.874;2023-07-16T15:38:33;9.48;;;8.48;;
62941;SDS011;49042;47.318;19.874;2023-07-16T15:41:38;12.68;;;9.10;;
62941;SDS011;49042;47.318;19.874;2023-07-16T15:44:40;10.25;;;9.18;;
62941;SDS011;49042;47.318;19.874;2023-07-16T15:47:43;19.08;;;9.52;;
62941;SDS011;49042;47.318;19.874;2023-07-16T15:50:46;19.73;;;10.65;;
62941;SDS011;49042;47.318;19.874;2023-07-16T15:53:52;12.40;;;9.68;;
62941;SDS011;49042;47.318;19.874;2023-07-16T15:56:55;22.20;;;9.68;;
62941;SDS011;49042;47.318;19.874;2023-07-16T15:59:57;24.12;;;10.02;;
62941;SDS011;49042;47.318;19.874;2023-07-16T16:02:59;17.48;;;10.32;;
62941;SDS011;49042;47.318;19.874;2023-07-16T16:06:02;13.52;;;9.98;;
62941;SDS011;49042;47.318;19.874;2023-07-16T16:09:05;15.50;;;9.27;;
62941;SDS011;49042;47.318;19.874;2023-07-16T16:12:07;13.52;;;9.48;;
62941;SDS011;49042;47.318;19.874;2023-07-16T16:15:10;12.68;;;9.38;;
62941;SDS011;49042;47.318;19.874;2023-07-16T16:18:13;11.93;;;9.88;;
62941;SDS011;49042;47.318;19.874;2023-07-16T16:21:18;16.53;;;10.73;;
62941;SDS011;49042;47.318;19.874;2023-07-16T16:24:20;13.65;;;9.32;;
62941;SDS011;49042;47.318;19.874;2023-07-16T16:27:26;12.07;;;9.93;;
62941;SDS011;49042;47.318;19.874;2023-07-16T16:30:28;11.00;;;9.45;;
62941;SDS011;49042;47.318;19.874;2023-07-16T16:33:31;13.95;;;9.65;;
62941;SDS011;49042;47.318;19.874;2023-07-16T16:36:33;11.63;;;10.43;;
62941;SDS011;49042;47.318;19.874;2023-07-16T16:39:35;13.23;;;11.02;;
62941;SDS011;49042;47.318;19.874;2023-07-16T16:42:37;13.88;;;11.10;;
62941;SDS011;49042;47.318;19.874;2023-07-16T16:45:39;19.02;;;7.57;;
62941;SDS011;49042;47.318;19.874;2023-07-16T16:48:44;14.07;;;10.80;;
62941;SDS011;49042;47.318;19.874;2023-07-16T16:51:46;12.98;;;10.80;;
62941;SDS011;49042;47.318;19.874;2023-07-16T16:54:48;21.83;;;11.12;;
62941;SDS011;49042;47.318;19.874;2023-07-16T16:57:51;13.50;;;11.68;;
62941;SDS011;49042;47.318;19.874;2023-07-16T17:00:53;13.85;;;11.55;;
62941;SDS011;49042;47.318;19.874;2023-07-16T17:03:57;15.95;;;11.60;;
62941;SDS011;49042;47.318;19.874;2023-07-16T17:06:59;24.08;;;12.07;;
62941;SDS011;49042;47.318;19.874;2023-07-16T17:10:02;18.50;;;12.37;;
62941;SDS011;49042;47.318;19.874;2023-07-16T17:13:04;20.40;;;11.73;;
62941;SDS011;49042;47.318;19.874;2023-07-16T17:16:07;20.50;;;12.50;;
62941;SDS011;49042;47.318;19.874;2023-07-16T17:19:08;23.42;;;12.27;;
62941;SDS011;49042;47.318;19.874;2023-07-16T17:22:10;28.23;;;12.77;;
62941;SDS011;49042;47.318;19.874;2023-07-16T17:25:13;17.45;;;13.02;;
62941;SDS011;49042;47.318;19.874;2023-07-16T17:28:14;15.65;;;12.45;;
62941;SDS011;49042;47.318;19.874;2023-07-16T17:31:17;23.87;;;12.30;;
62941;SDS011;49042;47.318;19.874;2023-07-16T17:34:20;15.77;;;12.27;;
62941;SDS011;49042;47.318;19.874;2023-07-16T17:37:22;21.90;;;12.75;;
62941;SDS011;49042;47.318;19.874;2023-07-16T17:40:23;17.75;;;12.45;;
62941;SDS011;49042;47.318;19.874;2023-07-16T17:43:25;16.87;;;13.32;;
62941;SDS011;49042;47.318;19.874;2023-07-16T17:46:29;15.65;;;13.18;;
62941;SDS011;49042;47.318;19.874;2023-07-16T17:49:31;20.23;;;14.70;;
62941;SDS011;49042;47.318;19.874;2023-07-16T17:52:33;22.00;;;14.05;;
62941;SDS011;49042;47.318;19.874;2023-07-16T17:55:35;17.50;;;13.93;;